Forside
METAR-TAF:

METAR-TAF

Lufthavne :

Bangkok, Thailand

Breddekreds: 13-54-45N, længdekreds: 100-36-24E, højde: 4 m

Aktuelle vejr

Denne rapport blev lavet for 25 minutter siden, kl. 01:00 UTC
Vind 7 kt fra østnordøst
Temperatur 25°C
Fugtighed 74%
Tryk 1016 hPa
Sigt 10 km eller mere
Nogle få skyer i en højde af 3000 ft

METAR: VTBD 170100Z 06007KT 9999 FEW030 25/20 Q1016 NOSIG

Tid: 08:25 (01:25 UTC)

Vejrudsigter

Denne rapport blev lavet for 2 timer og 25 minutter siden, kl. 23:00 UTC
Foreløbig gælder fra 17 på 00 UTC til 18 på 06 UTC
Vind 8 kt fra nord
Sigt 10 km eller mere
Nogle få skyer i en højde af 3000 ft
ændring
fra 17 på 02 UTC til 17 på 04 UTC
Vind 8 kt fra østnordøst
ændring
fra 17 på 17 UTC til 17 på 19 UTC
Vind 8 kt fra nord
ændring
fra 18 på 00 UTC til 18 på 02 UTC
Vind 5 kt fra østnordøst

TAF: VTBD 162300Z 1700/1806 01008KT 9999 FEW030 BECMG 1702/1704 07008KT BECMG 1717/1719 36008KT BECMG 1800/1802 06005KT

Vejrobservationer og prognoser fra mere end 4000 lufthavne (METAR og TAF).

De gule og røde prikker repræsenterer de meteorologiske stationer.

Flyt musen over at se navnet på stationen.

Så klik over at se vejr observationer og prognoser.

At skifte det kort: Klik på de grønne knapper med et sort kors for at zoome ind; på den grønne knap med en bindestreg for at zoome ud; eller på de grønne pile for tilstødende kort.


METAR-TAF: